Time;durP1;ratioP1;P1;durP2;ratioP2;P2;SDS_P1;SDS_P2;PMS_P1;PMS_P2;Temp;Humidity;BMP_temperature;BMP_pressure;BME280_temperature;BME280_humidity;BME280_pressure;Samples;Min_cycle;Max_cycle;Signal;HPM_P1;HPM_P2
2022/01/02 00:00:11;;;;;;;12.82;5.47;;;;;;;5.85;100.00;95302.00;5027253;28;20109;-93
2022/01/02 00:02:39;;;;;;;8.18;4.18;;;;;;;5.47;100.00;95308.91;5011844;28;20025;-93
2022/01/02 00:05:37;;;;;;;7.63;4.05;;;;;;;5.63;100.00;95312.81;5028890;28;20021;-93
2022/01/02 00:08:04;;;;;;;10.35;5.15;;;;;;;5.59;100.00;95314.22;5012700;28;20037;-92
2022/01/02 00:10:34;;;;;;;9.57;4.60;;;;;;;5.59;100.00;95309.03;5012359;28;20036;-92
2022/01/02 00:13:00;;;;;;;10.40;4.35;;;;;;;5.55;100.00;95307.84;5012590;28;20029;-92
2022/01/02 00:15:30;;;;;;;8.70;4.32;;;;;;;5.57;100.00;95306.66;5028014;28;20037;-93
2022/01/02 00:18:08;;;;;;;;;;;;;;;;;;;;;
2022/01/02 00:20:36;;;;;;;12.55;5.22;;;;;;;5.57;100.00;95308.44;5030968;28;20089;-92
2022/01/02 00:23:06;;;;;;;12.98;6.30;;;;;;;5.34;100.00;95296.81;5013430;28;20022;-91
2022/01/02 00:25:41;;;;;;;14.38;5.72;;;;;;;5.26;100.00;95302.25;5009143;28;20021;-92
2022/01/02 00:28:08;;;;;;;12.65;5.13;;;;;;;5.22;100.00;95300.09;5026414;28;20025;-92
2022/01/02 00:30:34;;;;;;;12.07;5.45;;;;;;;5.17;100.00;95302.53;5009022;28;20036;-91
2022/01/02 00:33:02;;;;;;;11.88;5.38;;;;;;;5.17;100.00;95299.94;5008577;28;20030;-92
2022/01/02 00:35:28;;;;;;;11.15;5.40;;;;;;;5.13;100.00;95300.56;5009003;28;20033;-92
2022/01/02 00:37:54;;;;;;;15.73;6.10;;;;;;;5.00;100.00;95307.41;5008840;28;20038;-92
2022/01/02 00:40:22;;;;;;;13.40;6.28;;;;;;;5.03;100.00;95304.41;5009271;28;20029;-93
2022/01/02 00:42:55;;;;;;;10.85;5.95;;;;;;;4.90;100.00;95307.88;5008761;28;20030;-93
2022/01/02 00:45:25;;;;;;;15.02;6.00;;;;;;;4.79;100.00;95303.31;5008666;28;20045;-93
2022/01/02 00:48:06;;;;;;;12.63;5.45;;;;;;;4.71;100.00;95299.16;5024318;28;20453;-92
2022/01/02 00:50:51;;;;;;;9.55;4.97;;;;;;;4.67;100.00;95298.00;5010123;28;20025;-92
2022/01/02 00:53:18;;;;;;;15.13;6.22;;;;;;;4.74;100.00;95298.75;5009612;28;20064;-91
2022/01/02 00:55:46;;;;;;;12.63;5.88;;;;;;;4.89;100.00;95298.50;5008315;28;20128;-93
2022/01/02 00:58:19;;;;;;;13.50;6.25;;;;;;;5.08;100.00;95294.16;5026956;28;20041;-92
2022/01/02 01:00:48;;;;;;;23.85;6.57;;;;;;;5.14;100.00;95295.13;5011533;28;20029;-92
2022/01/02 01:03:23;;;;;;;13.07;6.20;;;;;;;5.11;100.00;95298.16;5029738;28;20021;-93
2022/01/02 01:05:52;;;;;;;15.52;5.75;;;;;;;5.16;100.00;95298.31;5029445;28;20040;-92
2022/01/02 01:08:19;;;;;;;19.15;6.75;;;;;;;5.30;100.00;95291.25;5027489;28;20029;-91
2022/01/02 01:10:45;;;;;;;17.20;6.03;;;;;;;5.40;100.00;95295.19;5044113;28;20029;-92
2022/01/02 01:13:11;;;;;;;13.55;6.75;;;;;;;5.36;100.00;95289.59;5011258;28;20097;-92
2022/01/02 01:15:38;;;;;;;15.23;6.47;;;;;;;5.14;100.00;95292.53;5045295;28;20041;-93
2022/01/02 01:18:04;;;;;;;11.80;6.32;;;;;;;5.01;100.00;95287.41;5044879;28;20083;-92
2022/01/02 01:20:42;;;;;;;18.48;7.80;;;;;;;5.14;100.00;95300.31;5028447;28;20044;-92
2022/01/02 01:23:12;;;;;;;12.57;6.65;;;;;;;5.26;100.00;95303.06;5028641;28;20446;-92
2022/01/02 01:25:43;;;;;;;14.90;6.75;;;;;;;5.33;100.00;95297.84;5029006;28;20125;-94
2022/01/02 01:28:12;;;;;;;13.68;6.53;;;;;;;5.34;100.00;95302.81;5046095;28;20029;-91
2022/01/02 01:30:38;;;;;;;15.80;6.32;;;;;;;5.15;100.00;95301.91;5045019;28;20037;-93
2022/01/02 01:33:03;;;;;;;18.23;6.60;;;;;;;4.98;100.00;95306.03;5026495;28;20140;-92
2022/01/02 01:35:29;;;;;;;15.45;6.50;;;;;;;4.98;100.00;95306.03;5027550;28;20418;-93
2022/01/02 01:37:55;;;;;;;13.90;6.95;;;;;;;4.87;100.00;95305.66;5027318;28;20060;-94
2022/01/02 01:40:21;;;;;;;13.52;6.35;;;;;;;4.64;100.00;95296.59;5044319;28;20029;-94
2022/01/02 01:42:58;;;;;;;15.27;7.63;;;;;;;4.59;100.00;95306.81;5024882;28;20094;-92
2022/01/02 01:47:53;;;;;;;16.67;7.18;;;;;;;4.77;100.00;95290.53;5022531;28;20037;-92
2022/01/02 01:50:21;;;;;;;15.75;6.70;;;;;;;4.91;100.00;95298.25;5039996;28;20335;-92
2022/01/02 01:52:46;;;;;;;14.43;6.65;;;;;;;4.76;100.00;95288.16;5038393;28;20075;-92
2022/01/02 01:55:12;;;;;;;15.10;6.53;;;;;;;4.84;100.00;95290.50;5038554;28;20041;-92
2022/01/02 01:57:39;;;;;;;10.48;4.55;;;;;;;4.87;100.00;95286.72;5038355;28;20029;-91
2022/01/02 02:00:06;;;;;;;12.30;5.78;;;;;;;4.89;100.00;95284.69;5020695;28;20036;-92
2022/01/02 02:02:32;;;;;;;15.18;6.88;;;;;;;4.89;100.00;95280.31;5039134;28;20035;-91
2022/01/02 02:04:58;;;;;;;15.38;6.43;;;;;;;4.94;100.00;95275.28;5040065;28;20033;-93
2022/01/02 02:07:28;;;;;;;16.50;7.45;;;;;;;5.07;100.00;95279.59;5039738;28;20040;-93
2022/01/02 02:10:10;;;;;;;11.25;5.72;;;;;;;5.13;100.00;95283.16;5044779;28;20025;-93
2022/01/02 02:12:36;;;;;;;11.82;5.88;;;;;;;5.12;100.00;95278.97;5028134;28;20040;-92
2022/01/02 02:15:03;;;;;;;16.02;6.22;;;;;;;5.03;100.00;95283.63;5042270;28;20040;-91
2022/01/02 02:17:29;;;;;;;14.77;6.10;;;;;;;5.10;100.00;95278.38;5038509;28;20029;-92
2022/01/02 02:19:59;;;;;;;11.77;5.55;;;;;;;4.90;100.00;95271.50;5039279;28;20033;-93
2022/01/02 02:22:27;;;;;;;13.57;5.20;;;;;;;4.74;100.00;95264.22;5043186;28;20040;-92
2022/01/02 02:24:52;;;;;;;12.40;5.85;;;;;;;4.74;100.00;95274.59;5042455;28;20034;-93
2022/01/02 02:27:23;;;;;;;14.85;5.90;;;;;;;4.79;100.00;95267.75;5043814;28;20029;-92
2022/01/02 02:33:14;;;;;;;16.77;6.78;;;;;;;4.75;100.00;95268.41;5040760;28;20095;-93
2022/01/02 02:35:41;;;;;;;12.90;5.88;;;;;;;4.74;100.00;95272.00;5040439;28;20350;-93
2022/01/02 02:38:08;;;;;;;13.55;5.88;;;;;;;4.85;100.00;95266.13;5022619;28;20084;-93
2022/01/02 02:40:35;;;;;;;16.17;6.55;;;;;;;4.98;100.00;95260.09;5039026;28;20029;-92
2022/01/02 02:51:03;;;;;;;16.60;5.10;;;;;;;4.70;100.00;95232.69;5038650;28;20033;-92
2022/01/02 02:53:28;;;;;;;10.63;4.85;;;;;;;4.60;100.00;95232.31;5004608;28;20041;-92
2022/01/02 02:55:57;;;;;;;10.65;5.70;;;;;;;4.48;100.00;95230.38;5038134;28;20346;-93
2022/01/02 03:01:03;;;;;;;14.15;6.25;;;;;;;4.51;100.00;95221.41;5057006;28;20361;-91
2022/01/02 03:03:30;;;;;;;11.13;5.53;;;;;;;4.36;100.00;95217.28;5016182;28;20025;-92
2022/01/02 03:05:56;;;;;;;14.00;4.88;;;;;;;4.34;100.00;95223.66;4999980;28;20029;-91
2022/01/02 03:08:21;;;;;;;8.82;3.92;;;;;;;4.20;100.00;95209.97;5017076;28;20034;-92
2022/01/02 03:10:47;;;;;;;12.32;5.13;;;;;;;4.29;100.00;95211.28;5016897;28;20056;-92
2022/01/02 03:13:12;;;;;;;12.75;5.55;;;;;;;4.38;100.00;95204.09;5016969;28;20084;-92
2022/01/02 03:15:38;;;;;;;12.43;5.45;;;;;;;4.36;100.00;95203.50;4999718;28;20034;-92
2022/01/02 03:18:04;;;;;;;11.07;5.80;;;;;;;4.39;100.00;95196.09;5017373;28;20037;-93
2022/01/02 03:20:29;;;;;;;17.02;5.32;;;;;;;4.43;100.00;95193.88;4999451;28;20042;-91
2022/01/02 03:22:55;;;;;;;11.15;5.18;;;;;;;4.43;100.00;95191.28;4999766;28;20030;-91
2022/01/02 03:25:20;;;;;;;9.32;5.20;;;;;;;4.56;100.00;95195.59;5016982;28;20034;-92
2022/01/02 03:27:46;;;;;;;10.68;5.38;;;;;;;4.66;100.00;95192.53;4983512;28;20034;-92
2022/01/02 03:30:13;;;;;;;13.05;6.20;;;;;;;4.59;100.00;95192.63;4999428;28;20088;-92
2022/01/02 03:32:39;;;;;;;12.50;5.70;;;;;;;4.47;100.00;95192.47;5000697;28;20036;-92
2022/01/02 03:35:05;;;;;;;13.38;6.07;;;;;;;4.33;100.00;95189.16;5003574;28;20035;-92
2022/01/02 03:37:33;;;;;;;15.02;5.97;;;;;;;4.20;100.00;95189.22;5003741;28;20383;-91
2022/01/02 03:40:02;;;;;;;11.80;6.07;;;;;;;4.21;100.00;95185.59;5003976;28;20065;-91
2022/01/02 03:42:28;;;;;;;11.27;5.78;;;;;;;4.27;100.00;95189.19;5003384;28;20029;-92
2022/01/02 03:44:57;;;;;;;12.02;5.43;;;;;;;4.29;100.00;95205.34;5020972;28;20116;-92
2022/01/02 03:47:30;;;;;;;14.07;6.45;;;;;;;4.34;100.00;95198.53;4987560;28;20036;-92
2022/01/02 03:49:58;;;;;;;15.27;6.32;;;;;;;4.43;100.00;95203.47;5003675;28;20026;-92
2022/01/02 03:52:25;;;;;;;12.85;6.32;;;;;;;4.37;100.00;95212.84;5003865;28;20026;-91
2022/01/02 03:54:51;;;;;;;11.10;6.00;;;;;;;4.30;100.00;95205.09;5021061;28;20053;-93
2022/01/02 03:57:16;;;;;;;17.38;6.50;;;;;;;4.32;100.00;95205.72;5003325;28;20034;-92
2022/01/02 03:59:42;;;;;;;15.15;5.30;;;;;;;4.19;100.00;95203.19;5003212;28;20042;-92
2022/01/02 04:02:07;;;;;;;15.43;6.32;;;;;;;4.08;100.00;95197.63;5003660;28;20034;-93
2022/01/02 04:04:33;;;;;;;10.98;5.72;;;;;;;4.26;100.00;95205.75;5003204;28;20080;-92
2022/01/02 04:06:58;;;;;;;11.35;5.90;;;;;;;4.31;100.00;95209.31;5003170;28;20296;-91
2022/01/02 04:12:46;;;;;;;11.90;5.32;;;;;;;4.27;100.00;95228.09;5020278;28;20057;-91
2022/01/02 04:15:13;;;;;;;8.40;4.43;;;;;;;4.69;100.00;95225.91;5002690;28;20037;-90
2022/01/02 04:17:39;;;;;;;7.55;3.75;;;;;;;4.71;100.00;95220.47;5020265;28;20022;-92
2022/01/02 04:20:06;;;;;;;8.65;3.38;;;;;;;4.64;100.00;95217.91;5002518;28;20026;-90
2022/01/02 04:22:32;;;;;;;8.10;3.40;;;;;;;4.29;100.00;95219.09;5020107;28;20021;-91
2022/01/02 04:24:58;;;;;;;7.40;3.38;;;;;;;4.22;100.00;95221.69;5003054;28;20022;-91
2022/01/02 04:27:24;;;;;;;6.47;3.10;;;;;;;4.07;100.00;95224.56;5002818;28;20026;-91
2022/01/02 04:29:50;;;;;;;5.15;2.70;;;;;;;4.06;100.00;95228.16;5019967;28;20029;-92
2022/01/02 04:32:15;;;;;;;6.95;3.00;;;;;;;4.38;100.00;95227.44;5002692;28;20025;-92
2022/01/02 04:34:42;;;;;;;7.38;2.58;;;;;;;4.81;100.00;95229.44;5002915;28;20036;-91
2022/01/02 04:37:08;;;;;;;7.50;3.05;;;;;;;4.57;100.00;95224.97;5019888;28;20037;-92
2022/01/02 04:39:34;;;;;;;6.25;2.83;;;;;;;4.44;100.00;95221.44;5002358;28;20124;-91
2022/01/02 04:42:00;;;;;;;7.47;2.70;;;;;;;4.28;100.00;95224.50;5019834;28;20462;-91
2022/01/02 04:44:26;;;;;;;6.15;3.25;;;;;;;4.27;100.00;95230.69;5019988;28;20030;-91
2022/01/02 04:46:53;;;;;;;7.60;3.28;;;;;;;4.24;100.00;95224.91;5002309;28;20438;-91
2022/01/02 04:49:50;;;;;;;5.93;2.83;;;;;;;4.13;100.00;95228.13;5003649;28;20087;-93
2022/01/02 04:52:16;;;;;;;6.63;2.45;;;;;;;4.07;100.00;95229.75;5059403;28;20342;-91
2022/01/02 04:54:42;;;;;;;6.57;2.80;;;;;;;4.09;100.00;95232.94;5059312;28;20086;-93
2022/01/02 04:57:07;;;;;;;5.47;2.72;;;;;;;4.17;100.00;95233.72;5011788;28;20037;-92
2022/01/02 04:59:33;;;;;;;4.22;2.53;;;;;;;4.12;100.00;95244.72;5001368;28;20053;-91
2022/01/02 05:01:58;;;;;;;6.05;2.92;;;;;;;4.23;100.00;95238.06;4985833;28;20117;-92
2022/01/02 05:04:26;;;;;;;6.63;2.45;;;;;;;4.27;100.00;95228.88;5058203;28;20111;-91
2022/01/02 05:06:51;;;;;;;5.47;2.63;;;;;;;4.15;100.00;95228.72;5041538;28;20032;-92
2022/01/02 05:09:17;;;;;;;12.13;2.90;;;;;;;3.91;100.00;95223.19;5041658;28;20044;-91
2022/01/02 05:11:43;;;;;;;4.75;2.50;;;;;;;3.69;100.00;95217.47;5040731;28;20052;-92
2022/01/02 05:14:09;;;;;;;6.90;2.65;;;;;;;3.75;100.00;95219.28;5058927;28;20033;-92
2022/01/02 05:16:35;;;;;;;6.55;2.50;;;;;;;3.72;100.00;95222.25;5058982;28;20037;-92
2022/01/02 05:19:01;;;;;;;6.90;2.60;;;;;;;3.77;100.00;95213.88;5024480;28;20399;-91
2022/01/02 05:21:27;;;;;;;6.05;2.80;;;;;;;3.75;100.00;95216.69;5024637;28;20131;-91
2022/01/02 05:23:53;;;;;;;9.65;3.00;;;;;;;3.81;100.00;95221.03;5058010;28;20369;-92
2022/01/02 05:26:18;;;;;;;4.50;2.42;;;;;;;3.93;100.00;95223.00;5024507;28;20124;-91
2022/01/02 05:28:44;;;;;;;7.15;2.70;;;;;;;4.16;100.00;95216.53;5040874;28;20102;-92
2022/01/02 05:31:09;;;;;;;6.03;2.75;;;;;;;4.18;100.00;95217.16;5040938;28;20056;-91
2022/01/02 05:33:35;;;;;;;7.43;3.15;;;;;;;4.16;100.00;95219.13;5058469;28;20033;-92
2022/01/02 05:36:00;;;;;;;7.15;3.25;;;;;;;4.15;100.00;95218.34;5057448;28;20129;-92
2022/01/02 05:38:26;;;;;;;14.48;3.20;;;;;;;3.87;100.00;95205.66;5040434;28;20449;-92
2022/01/02 05:40:53;;;;;;;5.95;2.80;;;;;;;3.78;100.00;95202.50;5041119;28;20098;-92
2022/01/02 05:43:18;;;;;;;5.72;3.28;;;;;;;3.67;100.00;95217.69;5041119;28;20029;-93
2022/01/02 05:45:44;;;;;;;7.32;3.50;;;;;;;3.73;100.00;95207.50;5059125;28;20083;-91
2022/01/02 05:48:09;;;;;;;8.68;3.72;;;;;;;3.73;100.00;95197.94;5024376;28;20036;-93
2022/01/02 05:50:35;;;;;;;7.95;3.50;;;;;;;3.77;100.00;95203.50;5057139;28;20350;-92
2022/01/02 05:53:01;;;;;;;9.27;4.00;;;;;;;3.75;100.00;95201.13;5040368;28;20041;-92
2022/01/02 05:55:27;;;;;;;11.38;3.95;;;;;;;3.68;100.00;95195.16;5040244;28;20037;-91
2022/01/02 05:57:52;;;;;;;8.52;4.22;;;;;;;3.71;100.00;95196.53;5058243;28;20077;-91
2022/01/02 06:00:18;;;;;;;8.23;3.88;;;;;;;3.77;100.00;95190.53;5040700;28;20029;-93
2022/01/02 06:02:43;;;;;;;9.02;4.40;;;;;;;3.92;100.00;95190.31;5040454;28;20041;-92
2022/01/02 06:05:09;;;;;;;9.93;4.50;;;;;;;4.14;100.00;95183.03;5040558;28;20554;-93
2022/01/02 06:07:35;;;;;;;6.95;3.88;;;;;;;3.85;100.00;95177.38;5056633;28;20033;-91
2022/01/02 06:10:04;;;;;;;10.18;4.00;;;;;;;3.71;100.00;95184.38;5040435;28;20033;-91
2022/01/02 06:12:30;;;;;;;8.85;4.88;;;;;;;3.83;100.00;95189.75;5040266;28;20056;-92
2022/01/02 06:14:58;;;;;;;11.73;4.63;;;;;;;3.79;100.00;95181.56;5040355;28;20049;-93
2022/01/02 06:17:24;;;;;;;14.68;5.30;;;;;;;3.85;100.00;95184.34;5040965;28;20033;-92
2022/01/02 06:19:49;;;;;;;10.07;4.63;;;;;;;3.86;100.00;95183.34;5040127;28;20033;-92
2022/01/02 06:22:15;;;;;;;10.75;5.20;;;;;;;4.02;100.00;95185.50;5039823;28;20357;-92
2022/01/02 06:24:41;;;;;;;12.80;5.40;;;;;;;3.71;100.00;95179.19;5039984;28;20035;-91
2022/01/02 06:27:07;;;;;;;12.40;5.07;;;;;;;3.73;100.00;95174.63;5039843;28;20519;-92
2022/01/02 06:29:34;;;;;;;11.23;5.22;;;;;;;3.65;100.00;95167.84;5057574;28;20039;-91
2022/01/02 06:32:03;;;;;;;12.93;5.25;;;;;;;3.82;100.00;95170.00;5039946;28;20086;-92
2022/01/02 06:34:29;;;;;;;9.27;4.75;;;;;;;3.84;100.00;95172.38;5040036;28;20025;-92
2022/01/02 06:36:54;;;;;;;9.55;4.85;;;;;;;3.79;100.00;95167.78;5023330;28;20036;-92
2022/01/02 06:39:20;;;;;;;10.13;4.97;;;;;;;3.86;100.00;95167.78;5057714;28;20409;-91
2022/01/02 06:41:45;;;;;;;8.18;4.22;;;;;;;3.76;100.00;95163.84;5023444;28;20029;-92
2022/01/02 06:44:11;;;;;;;11.38;5.03;;;;;;;3.82;100.00;95165.59;5057362;28;20036;-92
2022/01/02 06:46:36;;;;;;;9.30;4.55;;;;;;;4.01;100.00;95168.31;5023261;28;20037;-92
2022/01/02 06:49:02;;;;;;;9.40;4.22;;;;;;;4.02;100.00;95164.75;5022723;28;20150;-92
2022/01/02 06:51:27;;;;;;;12.82;4.07;;;;;;;4.07;100.00;95175.28;5039744;28;20037;-92
2022/01/02 06:53:53;;;;;;;7.70;4.05;;;;;;;3.98;100.00;95179.09;5022684;28;20036;-92
2022/01/02 06:56:18;;;;;;;10.48;4.85;;;;;;;3.94;100.00;95177.94;5039624;28;20082;-92
2022/01/02 06:58:44;;;;;;;9.70;4.00;;;;;;;3.91;100.00;95175.75;5039565;28;20028;-92
2022/01/02 07:01:12;;;;;;;8.70;4.20;;;;;;;3.87;100.00;95172.75;5039738;28;20029;-91
2022/01/02 07:03:38;;;;;;;12.02;4.18;;;;;;;3.80;100.00;95177.16;5039573;28;20029;-92
2022/01/02 07:06:03;;;;;;;8.38;4.25;;;;;;;3.82;100.00;95178.56;5022129;28;20056;-91
2022/01/02 07:08:29;;;;;;;8.32;4.03;;;;;;;3.94;100.00;95188.31;5021507;28;20175;-91
2022/01/02 07:11:00;;;;;;;10.45;4.07;;;;;;;4.03;100.00;95191.47;5022677;28;20119;-91
2022/01/02 07:13:26;;;;;;;8.13;3.83;;;;;;;4.16;100.00;95196.59;5039084;28;20033;-91
2022/01/02 07:15:57;;;;;;;8.20;4.05;;;;;;;4.22;100.00;95203.53;5024067;28;20044;-93
2022/01/02 07:18:24;;;;;;;9.85;3.80;;;;;;;4.22;100.00;95202.75;5042733;28;20037;-92
2022/01/02 07:20:50;;;;;;;8.68;4.78;;;;;;;4.30;100.00;95206.91;5042093;28;20434;-91
2022/01/02 07:23:18;;;;;;;8.68;3.63;;;;;;;4.37;100.00;95200.69;5040986;28;20025;-93
2022/01/02 07:25:44;;;;;;;7.72;3.45;;;;;;;4.37;100.00;95200.69;5039525;28;20095;-90
2022/01/02 07:28:10;;;;;;;10.10;4.43;;;;;;;4.54;100.00;95213.19;5022762;28;20025;-91
2022/01/02 07:30:36;;;;;;;6.13;3.38;;;;;;;4.61;100.00;95210.56;5038696;28;20040;-90
2022/01/02 07:33:02;;;;;;;9.25;4.05;;;;;;;4.71;100.00;95210.09;5039188;28;20087;-91
2022/01/02 07:35:29;;;;;;;9.32;3.90;;;;;;;4.71;100.00;95207.50;5039080;28;20060;-91
2022/01/02 07:37:54;;;;;;;6.45;3.70;;;;;;;4.89;100.00;95205.00;5022858;28;20025;-91
2022/01/02 07:40:20;;;;;;;7.40;3.53;;;;;;;4.92;100.00;95216.75;5038787;28;20036;-91
2022/01/02 07:42:45;;;;;;;7.88;4.25;;;;;;;4.78;100.00;95214.25;5038867;28;20021;-90
2022/01/02 07:45:13;;;;;;;8.63;4.00;;;;;;;4.77;100.00;95214.47;5039249;28;20029;-93
2022/01/02 07:47:39;;;;;;;8.55;4.07;;;;;;;4.92;100.00;95221.94;5038974;28;20029;-91
2022/01/02 07:50:05;;;;;;;9.75;3.83;;;;;;;4.92;100.00;95217.56;5022630;28;20342;-91
2022/01/02 07:52:32;;;;;;;6.93;3.80;;;;;;;4.94;100.00;95214.75;5021983;28;20067;-90
2022/01/02 07:55:00;;;;;;;11.05;3.95;;;;;;;4.96;100.00;95207.56;5038380;28;20040;-93
2022/01/02 07:57:26;;;;;;;8.05;3.38;;;;;;;5.01;100.00;95212.09;5038767;28;20447;-92
2022/01/02 07:59:51;;;;;;;9.23;3.72;;;;;;;4.98;100.00;95215.94;5038490;28;20171;-92
2022/01/02 08:02:17;;;;;;;7.60;3.83;;;;;;;5.04;100.00;95224.69;5027353;28;20186;-92
2022/01/02 08:04:42;;;;;;;7.57;3.88;;;;;;;5.12;100.00;95219.22;5010085;28;20025;-91
2022/01/02 08:07:08;;;;;;;9.63;4.00;;;;;;;5.14;100.00;95219.00;5016610;28;20347;-91
2022/01/02 08:09:38;;;;;;;7.82;4.30;;;;;;;5.16;100.00;95215.19;5004951;28;20086;-91
2022/01/02 08:12:04;;;;;;;7.85;3.50;;;;;;;5.20;100.00;95215.56;5038568;28;20021;-92
2022/01/02 08:14:29;;;;;;;8.85;4.10;;;;;;;5.25;100.00;95220.94;5056287;28;20027;-92
2022/01/02 08:16:55;;;;;;;7.63;3.80;;;;;;;5.34;100.00;95222.25;5055208;28;20107;-91
2022/01/02 08:19:20;;;;;;;7.82;3.67;;;;;;;5.39;100.00;95224.22;5038680;28;20030;-92
2022/01/02 08:21:46;;;;;;;7.32;3.70;;;;;;;5.56;100.00;95227.06;5058035;28;20131;-92
2022/01/02 08:24:11;;;;;;;4.95;2.97;;;;;;;5.57;100.00;95222.66;5060105;28;20111;-92
2022/01/02 08:26:40;;;;;;;8.07;3.30;;;;;;;5.58;100.00;95227.66;5044806;28;20041;-92
2022/01/02 08:29:05;;;;;;;7.07;3.28;;;;;;;5.70;100.00;95225.13;5059826;28;20126;-92
2022/01/02 08:31:32;;;;;;;7.20;3.60;;;;;;;5.76;100.00;95221.69;5059739;28;20067;-91
2022/01/02 08:33:58;;;;;;;7.40;3.30;;;;;;;5.80;100.00;95228.03;5044496;28;20045;-90
2022/01/02 08:36:24;;;;;;;9.80;4.10;;;;;;;5.93;100.00;95223.72;5018091;28;20123;-92
2022/01/02 08:38:50;;;;;;;10.25;3.92;;;;;;;6.17;100.00;95223.88;5019607;28;20033;-90
2022/01/02 08:41:15;;;;;;;8.57;3.63;;;;;;;6.12;100.00;95229.75;5002070;28;20033;-91
2022/01/02 08:43:41;;;;;;;7.35;3.85;;;;;;;6.12;100.00;95236.75;5019529;28;20059;-91
2022/01/02 08:46:07;;;;;;;8.68;3.85;;;;;;;6.14;100.00;95234.72;5019472;28;20038;-91
2022/01/02 08:48:34;;;;;;;6.80;3.65;;;;;;;6.13;100.00;95235.72;5001931;28;20087;-91
2022/01/02 08:50:59;;;;;;;10.38;4.15;;;;;;;6.11;100.00;95235.16;5019325;28;20029;-91
2022/01/02 08:53:27;;;;;;;9.98;4.35;;;;;;;6.15;100.00;95224.09;5018302;28;20084;-92
2022/01/02 08:55:53;;;;;;;9.95;3.75;;;;;;;6.32;100.00;95228.72;5002048;28;20038;-90
2022/01/02 08:58:19;;;;;;;8.98;4.53;;;;;;;6.20;100.00;95223.47;5001970;28;20454;-91
2022/01/02 09:00:45;;;;;;;10.07;4.82;;;;;;;6.19;100.00;95224.47;5019359;28;20423;-90
2022/01/02 09:03:10;;;;;;;11.45;5.15;;;;;;;6.19;100.00;95216.66;5019157;28;20057;-92
2022/01/02 09:05:36;;;;;;;9.32;4.55;;;;;;;6.15;100.00;95218.09;5002097;28;20034;-91
2022/01/02 09:08:01;;;;;;;10.02;4.15;;;;;;;6.13;100.00;95227.94;4994007;28;20030;-92
2022/01/02 09:10:27;;;;;;;9.35;3.50;;;;;;;6.12;100.00;95231.53;5021070;28;20044;-91
2022/01/02 09:12:52;;;;;;;8.63;3.78;;;;;;;6.11;100.00;95227.34;5021121;28;20033;-91
2022/01/02 09:15:18;;;;;;;8.48;3.85;;;;;;;6.14;100.00;95224.31;5021144;28;20037;-92
2022/01/02 09:17:43;;;;;;;8.70;3.70;;;;;;;6.15;100.00;95223.28;5020638;28;20033;-91
2022/01/02 09:20:10;;;;;;;7.75;3.38;;;;;;;6.17;100.00;95218.66;5020353;28;20355;-91
2022/01/02 09:22:37;;;;;;;15.13;4.10;;;;;;;6.19;100.00;95224.47;5019054;28;20065;-90
2022/01/02 09:25:04;;;;;;;6.72;3.85;;;;;;;6.29;100.00;95227.34;5018812;28;20367;-92
2022/01/02 09:27:29;;;;;;;7.18;3.70;;;;;;;6.40;100.00;95227.63;5018673;28;20034;-91
2022/01/02 09:29:55;;;;;;;6.25;3.35;;;;;;;6.34;100.00;95222.28;5016708;28;20046;-91
2022/01/02 09:32:21;;;;;;;7.13;3.58;;;;;;;6.35;100.00;95226.47;5001406;28;20359;-90
2022/01/02 09:34:46;;;;;;;6.18;3.28;;;;;;;6.49;100.00;95221.13;5018541;28;20037;-91
2022/01/02 09:37:12;;;;;;;6.90;3.38;;;;;;;6.62;100.00;95217.53;4984794;28;20103;-91
2022/01/02 09:39:38;;;;;;;6.57;3.30;;;;;;;6.70;100.00;95213.81;5001038;28;20443;-91
2022/01/02 09:42:04;;;;;;;10.65;3.78;;;;;;;6.72;100.00;95209.19;5000961;28;20026;-91
2022/01/02 09:44:31;;;;;;;6.45;3.60;;;;;;;6.81;100.00;95210.47;5000817;28;20116;-90
2022/01/02 09:46:57;;;;;;;11.52;4.22;;;;;;;6.75;100.00;95206.16;4996428;28;20375;-91
2022/01/02 09:49:23;;;;;;;7.65;3.92;;;;;;;6.82;100.00;95198.25;5000690;28;20041;-91
2022/01/02 09:51:48;;;;;;;8.63;3.50;;;;;;;6.91;100.00;95200.31;5016334;28;20033;-91
2022/01/02 09:54:14;;;;;;;9.93;3.58;;;;;;;6.96;100.00;95197.03;5000176;28;20029;-90
2022/01/02 09:56:40;;;;;;;7.53;3.60;;;;;;;7.04;100.00;95194.09;5000789;28;20033;-90
2022/01/02 09:59:05;;;;;;;7.85;3.63;;;;;;;7.11;100.00;95191.38;5018228;28;20034;-91
2022/01/02 10:01:32;;;;;;;6.00;3.22;;;;;;;7.20;100.00;95190.03;5000867;28;20106;-91
2022/01/02 10:03:58;;;;;;;6.82;2.92;;;;;;;7.19;100.00;95195.47;5000733;28;20033;-92
2022/01/02 10:06:48;;;;;;;6.30;3.03;;;;;;;7.31;100.00;95193.69;5018085;28;20034;-91
2022/01/02 10:09:15;;;;;;;6.82;3.45;;;;;;;7.38;100.00;95188.34;5000959;28;20042;-91
2022/01/02 10:11:41;;;;;;;7.97;3.35;;;;;;;7.38;100.00;95180.53;5000332;28;20092;-91
2022/01/02 10:14:08;;;;;;;6.15;3.47;;;;;;;7.57;100.00;95193.44;5017734;28;20049;-91
2022/01/02 10:16:39;;;;;;;6.95;3.58;;;;;;;7.69;100.00;95185.63;5000474;28;20038;-91
2022/01/02 10:19:20;;;;;;;6.65;3.60;;;;;;;7.59;100.00;95180.97;4984449;28;20036;-91
2022/01/02 10:22:03;;;;;;;6.53;3.28;;;;;;;7.73;100.00;95186.75;5000051;28;20037;-90
2022/01/02 10:24:31;;;;;;;6.82;3.33;;;;;;;7.67;100.00;95182.44;5000563;28;20026;-91
2022/01/02 10:27:12;;;;;;;8.98;4.25;;;;;;;7.77;100.00;95180.88;5000141;28;20053;-91
2022/01/02 10:29:50;;;;;;;6.32;3.80;;;;;;;7.90;100.00;95173.81;5000114;28;20033;-91
2022/01/02 10:32:23;;;;;;;6.53;3.63;;;;;;;7.91;100.00;95178.00;5000437;28;20041;-91
2022/01/02 10:34:50;;;;;;;9.02;3.90;;;;;;;7.95;100.00;95186.94;5016434;28;20029;-90
2022/01/02 10:37:26;;;;;;;7.10;3.88;;;;;;;8.10;100.00;95188.28;5000069;28;20128;-91
2022/01/02 10:39:52;;;;;;;9.30;3.63;;;;;;;8.28;100.00;95185.50;5000440;28;20032;-91
2022/01/02 10:42:19;;;;;;;5.93;3.40;;;;;;;8.23;100.00;95189.81;4999963;28;20083;-91
2022/01/02 10:44:45;;;;;;;4.72;2.55;;;;;;;8.37;100.00;95179.94;5017507;28;20040;-91
2022/01/02 10:47:18;;;;;;;4.85;2.78;;;;;;;8.38;100.00;95176.28;4999703;28;20127;-91
2022/01/02 10:50:00;;;;;;;8.35;3.10;;;;;;;8.29;100.00;95170.66;5017201;28;20427;-90
2022/01/02 10:52:35;;;;;;;5.75;2.70;;;;;;;8.44;100.00;95168.31;5016284;28;20119;-91
2022/01/02 10:55:14;;;;;;;6.10;3.47;;;;;;;8.58;100.00;95165.44;4999996;28;20036;-90
2022/01/02 10:57:46;;;;;;;7.63;2.83;;;;;;;8.48;100.00;95156.38;5016165;28;20355;-91
2022/01/02 11:00:12;;;;;;;6.22;2.92;;;;;;;8.58;100.00;95155.78;5017432;28;20030;-90
2022/01/02 11:02:38;;;;;;;6.97;3.13;;;;;;;8.58;100.00;95157.63;4999561;28;20120;-91
2022/01/02 11:05:09;;;;;;;5.70;2.50;;;;;;;8.72;100.00;95150.25;4999582;28;20053;-91
2022/01/02 11:07:41;;;;;;;5.07;2.80;;;;;;;8.62;100.00;95151.69;4999540;28;20033;-91
2022/01/02 11:10:08;;;;;;;5.60;2.55;;;;;;;8.62;100.00;95146.47;5017058;28;20033;-90
2022/01/02 11:12:34;;;;;;;6.13;2.97;;;;;;;8.57;100.00;95143.75;4999536;28;20025;-90
2022/01/02 11:15:00;;;;;;;4.90;2.60;;;;;;;8.70;100.00;95131.41;4999443;28;20473;-92
2022/01/02 11:17:25;;;;;;;8.80;3.13;;;;;;;8.84;100.00;95124.88;4999131;28;20029;-91
2022/01/02 11:19:51;;;;;;;7.13;2.90;;;;;;;8.84;100.00;95130.09;4983574;28;20048;-91
2022/01/02 11:22:31;;;;;;;5.03;2.58;;;;;;;8.75;100.00;95123.66;4999278;28;20324;-91
2022/01/02 11:25:14;;;;;;;6.43;3.03;;;;;;;8.72;100.00;95121.53;4999769;28;20340;-91
2022/01/02 11:27:43;;;;;;;5.50;2.75;;;;;;;8.67;100.00;95116.22;4998857;28;20367;-91
2022/01/02 11:30:31;;;;;;;5.10;2.38;;;;;;;8.87;100.00;95113.94;4999318;28;20030;-90
2022/01/02 11:33:06;;;;;;;5.20;2.58;;;;;;;8.95;100.00;95104.13;4999376;28;20064;-91
2022/01/02 11:35:32;;;;;;;6.18;2.47;;;;;;;8.98;100.00;95095.78;5016730;28;20072;-91
2022/01/02 11:38:03;;;;;;;6.20;3.00;;;;;;;8.93;100.00;95090.50;4999538;28;20041;-91
2022/01/02 11:40:54;;;;;;;4.38;2.50;;;;;;;9.06;100.00;95090.19;4999565;28;20387;-91
2022/01/02 11:43:47;;;;;;;6.68;3.17;;;;;;;9.06;100.00;95090.19;5016206;28;20033;-91
2022/01/02 11:46:18;;;;;;;5.70;2.90;;;;;;;9.03;100.00;95095.88;5017069;28;20042;-90
2022/01/02 11:49:15;;;;;;;7.13;2.80;;;;;;;9.01;100.00;95092.69;5016683;28;20427;-92
2022/01/02 11:51:47;;;;;;;4.55;2.53;;;;;;;8.99;100.00;95085.13;5015627;28;20038;-91
2022/01/02 11:54:28;;;;;;;5.80;2.95;;;;;;;9.28;100.00;95085.00;5018995;28;20034;-90